Weather at Al Ghaydah International Airport

Public forecast

Using degrees Celsius for public forecast. Weather courtesy of forecast.io.

Closest aviation weather report (METAR) to Al Ghaydah International Airport

Report is more than 6 hours old.

Closest report is Salalah Airport, 121.4 nm (224.9 km) ENE.

2022/11/14 14:50 (retrieved 2 years ago)

OOSA 141450Z 16003KT 120V190 CAVOK 27/19 Q1015 NOSIG

Closest aviation forecast (TAF) to Al Ghaydah International Airport

Forecast is more than 12 hours old.

Closest forecast is Salalah Airport, 121.4 nm (224.9 km) ENE.

2023/02/22 18:00 (retrieved 1 year ago)

TAF OOSA 221740Z 2218/2400 VRB03KT CAVOK BECMG 2307/2309 19010KT BECMG 2314/2315 VRB03KT